Latest Coastal Weather Observations for Point Fawcett

IDD60701

Issued at 10:21 am CST Wednesday 29 July 2015 (issued every 10 minutes, with the page automatically refreshed every 10 minutes)

About coastal observations | Map of coastal stations | Coastal observations for NT | Marine services | Other Formats
Station Details ID: 200731 Name: POINT FAWCETT Lat: -11.76 Lon: 130.03 Height: 6.5 m
Data from the previous 72 hours. | See also: Recent months at Point Fawcett
Date/Time
CST
Temp

°C
Wind Pressure Rain
since 9am
mm
Weather Cloud Vis
km
Sea
Height
m
Swell
Dir
 
Speed
knots
Gust
knots
hPa Trend Height
m
Period
s
Dir
29/10:00am 27.3 ESE 11 21 1017.6 - 0.0 - - - - - - -
29/09:30am 26.9 ESE 9 21 1017.7 - 0.0 - - - - - - -
29/09:00am 26.5 E 9 19 1017.4 - 0.0 - - - - - - -
29/08:30am 25.8 ESE 7 13 1017.1 - 0.0 - - - - - - -
29/08:00am 24.7 ESE 8 15 1016.8 - 0.0 - - - - - - -
29/07:30am 23.9 E 6 10 1016.6 - 0.0 - - - - - - -
29/07:00am 24.1 ESE 7 13 1016.3 - 0.0 - - - - - - -
29/06:30am 23.8 ESE 7 14 1015.8 - 0.0 - - - - - - -
29/06:00am 22.5 ESE 6 9 1015.7 - 0.0 - - - - - - -
29/05:30am 22.0 ESE 5 9 1015.5 - 0.0 - - - - - - -
29/05:00am 20.7 ESE 6 10 1015.4 - 0.0 - - - - - - -
29/04:30am 17.0 SE 4 5 1015.4 - 0.0 - - - - - - -
29/04:00am 16.5 SE 4 5 1015.4 - 0.0 - - - - - - -
29/03:30am 16.7 SE 4 6 1015.6 - 0.0 - - - - - - -
29/03:00am 16.6 SE 3 5 1015.6 - 0.0 - - - - - - -
29/02:30am 16.9 SSE 4 5 1015.8 - 0.0 - - - - - - -
29/02:00am 16.8 SSE 4 5 1016.0 - 0.0 - - - - - - -
29/01:30am 16.8 SSE 4 6 1016.4 - 0.0 - - - - - - -
29/01:00am 17.0 SSE 4 5 1016.5 - 0.0 - - - - - - -
29/12:30am 16.9 SSE 4 5 1016.5 - 0.0 - - - - - - -
29/12:00am 16.9 SSE 4 5 1016.6 - 0.0 - - - - - - -
 
Date/Time
CST
Temp

°C
Wind Pressure Rain
since 9am
mm
Weather Cloud Vis
km
Sea
Height
m
Swell
Dir
 
Speed
knots
Gust
knots
hPa Trend Height
m
Period
s
Dir
28/11:30pm 16.8 SSE 4 6 1016.6 - 0.0 - - - - - - -
28/11:00pm 17.3 S 4 5 1016.7 - 0.0 - - - - - - -
28/10:30pm 17.6 S 4 5 1016.7 - 0.0 - - - - - - -
28/10:00pm 17.9 S 4 5 1016.7 - 0.0 - - - - - - -
28/09:30pm 18.3 S 5 6 1016.8 - 0.0 - - - - - - -
28/09:00pm 19.2 S 5 6 1016.7 - 0.0 - - - - - - -
28/08:30pm 21.2 S 5 6 1016.5 - 0.0 - - - - - - -
28/08:00pm 20.5 SSE 5 8 1016.1 - 0.0 - - - - - - -
28/07:30pm 21.0 SE 4 5 1015.7 - 0.0 - - - - - - -
28/07:00pm 22.8 SSE 4 4 1015.4 - 0.0 - - - - - - -
28/06:30pm 26.0 SE 3 4 1015.1 - 0.0 - - - - - - -
28/06:00pm 28.1 SSE 4 6 1014.9 - 0.0 - - - - - - -
28/05:30pm 29.3 SE 5 8 1014.7 - 0.0 - - - - - - -
28/05:00pm 29.3 SE 6 13 1014.6 - 0.0 - - - - - - -
28/04:30pm 29.7 E 7 11 1014.6 - 0.0 - - - - - - -
28/04:00pm 30.0 ESE 6 13 1014.7 - 0.0 - - - - - - -
28/03:30pm 29.5 SE 7 11 1014.8 - 0.0 - - - - - - -
28/03:00pm 30.0 SE 7 11 1015.1 - 0.0 - - - - - - -
28/02:30pm 30.1 ESE 7 12 1015.4 - 0.0 - - - - - - -
28/02:00pm 29.5 ESE 9 16 1015.9 - 0.0 - - - - - - -
28/01:30pm 29.3 ESE 10 18 1016.4 - 0.0 - - - - - - -
28/01:00pm 29.2 ESE 11 19 1016.9 - 0.0 - - - - - - -
28/12:30pm 28.2 ESE 13 21 1017.2 - 0.0 - - - - - - -
28/12:00pm 28.5 SE 9 19 1017.4 - 0.0 - - - - - - -
28/11:30am 27.6 SE 13 20 1017.5 - 0.0 - - - - - - -
28/11:00am 28.0 ESE 11 20 1017.7 - 0.0 - - - - - - -
28/10:30am 27.8 ESE 11 18 1017.7 - 0.0 - - - - - - -
28/10:00am 27.9 SE 10 18 1017.7 - 0.0 - - - - - - -
28/09:30am 27.1 ESE 11 17 1017.7 - 0.0 - - - - - - -
28/09:00am 26.7 ESE 11 18 1017.7 - 0.0 - - - - - - -
28/08:30am 26.0 ESE 8 16 1017.5 - 0.0 - - - - - - -
28/08:00am 24.6 ESE 6 11 1017.3 - 0.0 - - - - - - -
28/07:30am 23.4 ESE 6 10 1017.1 - 0.0 - - - - - - -
28/07:00am 22.8 ESE 5 9 1016.8 - 0.0 - - - - - - -
28/06:30am 22.8 ESE 6 11 1016.6 - 0.0 - - - - - - -
28/06:00am 23.0 SE 5 7 1016.3 - 0.0 - - - - - - -
28/05:30am 21.2 SSE 3 5 1016.1 - 0.0 - - - - - - -
28/05:00am 21.7 S 4 5 1015.9 - 0.0 - - - - - - -
28/04:30am 22.0 S 5 7 1015.7 - 0.0 - - - - - - -
28/04:00am 19.8 S 4 5 1015.6 - 0.0 - - - - - - -
28/03:30am 20.2 S 4 6 1015.6 - 0.0 - - - - - - -
28/03:00am 20.5 ESE 4 5 1015.7 - 0.0 - - - - - - -
28/02:30am 20.6 SSE 4 5 1016.1 - 0.0 - - - - - - -
28/02:00am 20.9 SE 4 5 1016.3 - 0.0 - - - - - - -
28/01:30am 21.5 ESE 4 6 1016.5 - 0.0 - - - - - - -
28/01:00am 21.3 ESE 4 5 1016.7 - 0.0 - - - - - - -
28/12:30am 21.5 SE 4 4 1016.6 - 0.0 - - - - - - -
28/12:00am 22.0 ESE 4 5 1016.7 - 0.0 - - - - - - -
 
Date/Time
CST
Temp

°C
Wind Pressure Rain
since 9am
mm
Weather Cloud Vis
km
Sea
Height
m
Swell
Dir
 
Speed
knots
Gust
knots
hPa Trend Height
m
Period
s
Dir
27/11:30pm 22.7 ESE 4 5 1016.7 - 0.0 - - - - - - -
27/11:00pm 22.7 ESE 4 6 1016.5 - 0.0 - - - - - - -
27/10:30pm 22.5 ESE 4 5 1016.2 - 0.0 - - - - - - -
27/10:00pm 23.1 ESE 4 5 1016.2 - 0.0 - - - - - - -
27/09:30pm 23.5 SE 4 5 1016.0 - 0.0 - - - - - - -
27/09:00pm 23.8 SE 4 4 1015.8 - 0.0 - - - - - - -
27/08:30pm 24.8 SSE 3 5 1015.5 - 0.0 - - - - - - -
27/08:00pm 26.1 SSW 4 8 1015.1 - 0.0 - - - - - - -
27/07:30pm 26.6 WSW 5 8 1014.8 - 0.0 - - - - - - -
27/07:00pm 26.7 WSW 5 7 1014.4 - 0.0 - - - - - - -
27/06:30pm 27.1 WNW 7 8 1014.1 - 0.0 - - - - - - -
27/06:00pm 28.0 NW 7 10 1014.0 - 0.0 - - - - - - -
27/05:30pm 29.0 N 9 12 1013.7 - 0.0 - - - - - - -
27/05:00pm 30.1 N 10 15 1013.5 - 0.0 - - - - - - -
27/04:30pm 33.2 E 7 14 1013.5 - 0.0 - - - - - - -
27/04:00pm 32.9 E 9 14 1013.5 - 0.0 - - - - - - -
27/03:30pm 33.8 E 7 13 1013.6 - 0.0 - - - - - - -
27/03:00pm 33.2 E 10 16 1013.8 - 0.0 - - - - - - -
27/02:30pm 32.3 SE 8 15 1014.3 - 0.0 - - - - - - -
27/02:00pm 32.3 ESE 7 18 1014.9 - 0.0 - - - - - - -
27/01:30pm 32.3 SE 7 13 1015.2 - 0.0 - - - - - - -
27/01:00pm 31.7 SE 6 11 1015.7 - 0.0 - - - - - - -
27/12:30pm 31.5 SE 7 11 1016.1 - 0.0 - - - - - - -
27/12:00pm 30.5 S 7 13 1016.5 - 0.0 - - - - - - -
27/11:30am 30.0 SE 8 13 1017.0 - 0.0 - - - - - - -
27/11:00am 29.1 S 8 13 1017.2 - 0.0 - - - - - - -
27/10:30am 29.1 SSE 6 10 1017.5 - 0.0 - - - - - - -
27/10:00am 28.7 SSE 7 11 1017.4 - 0.0 - - - - - - -
27/09:30am 27.7 S 7 12 1017.4 - 0.0 - - - - - - -
27/09:00am 26.9 S 5 8 1017.5 - 0.0 - - - - - - -
27/08:30am 26.0 SSE 3 5 1017.3 - 0.0 - - - - - - -
27/08:00am 22.9 ESE 3 4 1017.1 - 0.0 - - - - - - -
27/07:30am 22.4 ESE 3 4 1016.7 - 0.0 - - - - - - -
27/07:00am 22.4 S 3 4 1016.3 - 0.0 - - - - - - -
27/06:30am 22.4 SSE 3 4 1016.2 - 0.0 - - - - - - -
27/06:00am 22.6 SSE 3 4 1016.2 - 0.0 - - - - - - -
27/05:30am 23.1 S 4 5 1016.0 - 0.0 - - - - - - -
27/05:00am 22.9 SSE 4 5 1016.0 - 0.0 - - - - - - -
27/04:30am 23.0 SSE 3 4 1016.0 - 0.0 - - - - - - -
27/04:00am 23.0 SSE 3 4 1016.0 - 0.0 - - - - - - -
27/03:30am 23.2 SSE 3 4 1016.0 - 0.0 - - - - - - -
27/03:00am 23.6 S 3 4 1016.1 - 0.0 - - - - - - -
27/02:30am 23.8 S 3 4 1016.3 - 0.0 - - - - - - -
27/02:00am 24.1 S 3 4 1016.5 - 0.0 - - - - - - -
27/01:30am 24.4 S 3 4 1016.8 - 0.0 - - - - - - -
27/01:00am 25.3 SW 3 5 1017.1 - 0.0 - - - - - - -
27/12:30am 26.1 WSW 4 6 1017.2 - 0.0 - - - - - - -
27/12:00am 26.2 W 5 7 1017.1 - 0.0 - - - - - - -
 
Date/Time
CST
Temp

°C
Wind Pressure Rain
since 9am
mm
Weather Cloud Vis
km
Sea
Height
m
Swell
Dir
 
Speed
knots
Gust
knots
hPa Trend Height
m
Period
s
Dir
26/11:30pm 26.3 W 6 7 1017.2 - 0.0 - - - - - - -
26/11:00pm 26.4 WNW 6 8 1017.1 - 0.0 - - - - - - -
26/10:30pm 26.4 W 6 7 1017.1 - 0.0 - - - - - - -
26/10:00pm 26.4 WNW 7 9 1017.0 - 0.0 - - - - - - -
26/09:30pm 26.4 W 7 9 1017.0 - 0.0 - - - - - - -
26/09:00pm 26.2 W 7 9 1016.7 - 0.0 - - - - - - -
26/08:30pm 26.2 NNW 7 10 1016.5 - 0.0 - - - - - - -
26/08:00pm 26.2 NNW 7 9 1016.3 - 0.0 - - - - - - -
26/07:30pm 26.3 NW 7 9 1016.0 - 0.0 - - - - - - -
26/07:00pm 26.5 NW 7 9 1015.5 - 0.0 - - - - - - -
26/06:30pm 27.1 NW 8 9 1015.1 - 0.0 - - - - - - -
26/06:00pm 28.2 WNW 9 11 1014.7 - 0.0 - - - - - - -
26/05:30pm 30.7 N 4 6 1014.2 - 0.0 - - - - - - -
26/05:00pm 30.9 ENE 5 8 1014.1 - 0.0 - - - - - - -
26/04:30pm 31.2 SE 6 9 1014.1 - 0.0 - - - - - - -
26/04:00pm 31.3 SE 4 8 1014.0 - 0.0 - - - - - - -
26/03:30pm 31.3 SSE 5 9 1014.0 - 0.0 - - - - - - -
26/03:00pm 30.5 S 6 12 1014.1 - 0.0 - - - - - - -
26/02:30pm 30.6 SSE 6 12 1014.3 - 0.0 - - - - - - -
26/02:00pm 31.3 SSE 7 15 1014.6 - 0.0 - - - - - - -
26/01:30pm 31.8 SSE 8 14 1014.9 - 0.0 - - - - - - -
26/01:00pm 32.5 ESE 7 14 1015.1 - 0.0 - - - - - - -
26/12:30pm 32.5 E 7 11 1015.6 - 0.0 - - - - - - -
26/12:00pm 32.0 SE 7 12 1016.2 - 0.0 - - - - - - -
26/11:30am 31.1 E 7 15 1016.5 - 0.0 - - - - - - -
26/11:00am 30.7 E 7 11 1016.8 - 0.0 - - - - - - -
26/10:30am 30.2 ESE 6 11 1017.0 - 0.0 - - - - - - -

Other Formats:

Comma delimited format used in spreadsheet applications
http://www.bom.gov.au/fwo/IDD60701/IDD60701.94122.axf

JavaScript Object Notation format (JSON) in row-major order
http://www.bom.gov.au/fwo/IDD60701/IDD60701.94122.json